Windom, MN

6:04 PM CDT on June 27, 2017 (GMT -0500)
Windom Municipal

Weather History for KMWM - November, 2012

Change the Weather History Date:

Wednesday, November 21, 2012

  Actual Average Record
Temperature  
Mean Temperature 56 °F -  
Max Temperature 69 °F 37 °F 69 °F (2012)
Min Temperature 42 °F 20 °F -7 °F (1964)
Degree Days  
Heating Degree Days 10    
Growing Degree Days 6 (Base 50)    
Moisture  
Dew Point 37 °F    
Average Humidity 54    
Maximum Humidity 76    
Minimum Humidity 25    
Precipitation  
Precipitation 0.00 in - - ()
Sea Level Pressure  
Sea Level Pressure 29.85 in    
Wind  
Wind Speed 15 mph (South)    
Max Wind Speed 23 mph    
Max Gust Speed 32 mph    
Visibility 10 miles    
Events      
Averages and records for this station are not official NWS values.
T = Trace of Precipitation, MM = Missing Value Source: NWS Daily Summary

Daily Weather History Graph

Daily Weather History Graph

Search for Another Location

Airport or City:

Trip Planner

Search our weather history database for the weather conditions in past years. The results will help you decide how hot, cold, wet, or windy it might be!

Date:

Astronomy

Nov. 21, 2012 Rise Set
Actual Time 7:23 AM CST 4:49 PM CST
Civil Twilight 6:51 AM CST 5:20 PM CST
Nautical Twilight 6:16 AM CST 5:55 PM CST
Astronomical Twilight 5:42 AM CST 6:30 PM CST
Moon 1:17 PM CST (11/21) 12:31 AM CST (11/21)
Length of Visible Light 10h 28m
Length of Day
9h 25m
First Quarter, 62% of the Moon is Illuminated
Nov 21
First Quarter
Nov 28
Full
Dec 6
Last Quarter
Dec 13
New
Dec 19
First Quarter

Hourly Weather History & Observations

Time (CST) Temp. Windchill Dew Point Humidity Pressure Visibility Wind Dir Wind Speed Gust Speed Precip Events Conditions
12:13 AM 48.2 °F - 33.8 °F 58% 30.00 in 10.0 mi South 15.0 mph 23.0 mph N/A   Clear
12:32 AM 48.2 °F - 33.8 °F 58% 29.99 in 10.0 mi South 15.0 mph 21.9 mph N/A   Clear
12:53 AM 48.2 °F - 33.8 °F 58% 29.99 in 10.0 mi South 15.0 mph 24.2 mph N/A   Clear
1:12 AM 48.2 °F - 33.8 °F 58% 29.98 in 10.0 mi South 15.0 mph 20.7 mph N/A   Clear
1:32 AM 48.2 °F - 33.8 °F 58% 29.98 in 10.0 mi South 15.0 mph - N/A   Clear
1:53 AM 46.4 °F 40.4 °F 33.8 °F 62% 29.98 in 10.0 mi South 13.8 mph 19.6 mph N/A   Clear
2:12 AM 46.4 °F 40.7 °F 35.6 °F 66% 29.98 in 10.0 mi South 12.7 mph - N/A   Clear
2:32 AM 46.4 °F 40.7 °F 35.6 °F 66% 29.98 in 10.0 mi South 12.7 mph - N/A   Clear
2:53 AM 46.4 °F 41.5 °F 35.6 °F 66% 29.98 in 10.0 mi South 10.4 mph - N/A   Clear
3:12 AM 46.4 °F 40.1 °F 35.6 °F 66% 29.97 in 10.0 mi SSW 15.0 mph - N/A   Clear
3:32 AM 46.4 °F 39.2 °F 35.6 °F 66% 29.96 in 10.0 mi SSW 18.4 mph - N/A   Clear
3:53 AM 46.4 °F 39.8 °F 35.6 °F 66% 29.95 in 10.0 mi South 16.1 mph 21.9 mph N/A   Clear
4:12 AM 46.4 °F 41.1 °F 35.6 °F 66% 29.95 in 10.0 mi South 11.5 mph - N/A   Clear
4:32 AM 46.4 °F 40.4 °F 35.6 °F 66% 29.94 in 10.0 mi South 13.8 mph 19.6 mph N/A   Clear
4:53 AM 46.4 °F 40.7 °F 35.6 °F 66% 29.95 in 10.0 mi South 12.7 mph - N/A   Clear
5:12 AM 46.4 °F 40.7 °F 35.6 °F 66% 29.95 in 10.0 mi South 12.7 mph 17.3 mph N/A   Clear
5:32 AM 46.4 °F 40.7 °F 35.6 °F 66% 29.94 in 10.0 mi South 12.7 mph - N/A   Clear
5:52 AM 44.6 °F 38.1 °F 35.6 °F 71% 29.94 in 10.0 mi South 13.8 mph 18.4 mph N/A   Clear
6:13 AM 44.6 °F 38.1 °F 35.6 °F 71% 29.94 in 10.0 mi SSW 13.8 mph - N/A   Clear
6:33 AM 44.6 °F 38.4 °F 35.6 °F 71% 29.94 in 10.0 mi South 12.7 mph - N/A   Clear
6:52 AM 44.6 °F 39.2 °F 35.6 °F 71% 29.94 in 10.0 mi South 10.4 mph - N/A   Clear
7:13 AM 42.8 °F 37.0 °F 35.6 °F 76% 29.94 in 10.0 mi SSW 10.4 mph - N/A   Clear
7:33 AM 42.8 °F 36.6 °F 35.6 °F 76% 29.94 in 10.0 mi SSW 11.5 mph - N/A   Clear
7:52 AM 44.6 °F 38.8 °F 35.6 °F 71% 29.94 in 10.0 mi SSW 11.5 mph - N/A   Clear
8:13 AM 44.6 °F 38.8 °F 35.6 °F 71% 29.94 in 10.0 mi SSW 11.5 mph - N/A   Clear
8:33 AM 44.6 °F 39.2 °F 35.6 °F 71% 29.94 in 10.0 mi SSW 10.4 mph - N/A   Clear
8:52 AM 46.4 °F 41.1 °F 37.4 °F 71% 29.94 in 10.0 mi SSW 11.5 mph - N/A   Clear
9:13 AM 48.2 °F - 37.4 °F 66% 29.93 in 10.0 mi SSW 11.5 mph - N/A   Clear
9:33 AM 50.0 °F - 37.4 °F 62% 29.93 in 10.0 mi SSW 16.1 mph 20.7 mph N/A   Clear
9:52 AM 51.8 °F - 37.4 °F 58% 29.93 in 10.0 mi SSW 11.5 mph 17.3 mph N/A   Clear
10:13 AM 53.6 °F - 37.4 °F 54% 29.92 in 10.0 mi SSW 11.5 mph - N/A   Clear
10:33 AM 55.4 °F - 35.6 °F 47% 29.92 in 10.0 mi SW 18.4 mph - N/A   Clear
10:52 AM 57.2 °F - 35.6 °F 44% 29.92 in 10.0 mi SSW 18.4 mph - N/A   Clear
11:13 AM 59.0 °F - 35.6 °F 42% 29.91 in 10.0 mi SSW 19.6 mph - N/A   Clear
11:33 AM 59.0 °F - 35.6 °F 42% 29.89 in 10.0 mi South 16.1 mph - N/A   Clear
11:52 AM 60.8 °F - 35.6 °F 39% 29.88 in 10.0 mi South 17.3 mph 20.7 mph N/A   Clear
12:13 PM 60.8 °F - 35.6 °F 39% 29.87 in 10.0 mi South 15.0 mph - N/A   Clear
12:33 PM 64.4 °F - 35.6 °F 34% 29.86 in 10.0 mi SSW 16.1 mph 21.9 mph N/A   Clear
12:52 PM 66.2 °F - 33.8 °F 30% 29.85 in 10.0 mi South 17.3 mph 24.2 mph N/A   Clear
1:13 PM 66.2 °F - 33.8 °F 30% 29.84 in 10.0 mi SSW 19.6 mph - N/A   Clear
1:33 PM 68.0 °F - 33.8 °F 28% 29.83 in 10.0 mi SSW 17.3 mph 21.9 mph N/A   Clear
1:52 PM 69.8 °F - 32.0 °F 25% 29.82 in 10.0 mi SSW 21.9 mph 27.6 mph N/A   Clear
2:18 PM 69.8 °F - 33.8 °F 27% 29.81 in 10.0 mi South 19.6 mph 25.3 mph N/A   Clear
2:32 PM 69.8 °F - 33.8 °F 27% 29.80 in 10.0 mi South 17.3 mph 26.5 mph N/A   Clear
2:52 PM 69.8 °F - 33.8 °F 27% 29.80 in 10.0 mi South 20.7 mph 27.6 mph N/A   Clear
3:13 PM 69.8 °F - 35.6 °F 28% 29.79 in 10.0 mi South 23.0 mph 29.9 mph N/A   Clear
3:32 PM 68.0 °F - 35.6 °F 30% 29.78 in 10.0 mi SSW 21.9 mph 32.2 mph N/A   Clear
3:58 PM 66.2 °F - 37.4 °F 35% 29.78 in 10.0 mi South 19.6 mph 28.8 mph N/A   Clear
4:13 PM 64.4 °F - 39.2 °F 40% 29.78 in 10.0 mi South 20.7 mph 25.3 mph N/A   Clear
4:32 PM 64.4 °F - 39.2 °F 40% 29.78 in 10.0 mi South 15.0 mph 21.9 mph N/A   Clear
4:52 PM 62.6 °F - 41.0 °F 45% 29.77 in 10.0 mi South 15.0 mph - N/A   Clear
5:13 PM 62.6 °F - 41.0 °F 45% 29.78 in 10.0 mi South 13.8 mph - N/A   Clear
5:32 PM 62.6 °F - 41.0 °F 45% 29.78 in 10.0 mi South 12.7 mph 23.0 mph N/A   Clear
5:52 PM 60.8 °F - 41.0 °F 48% 29.77 in 10.0 mi South 13.8 mph 19.6 mph N/A   Clear
6:12 PM 60.8 °F - 41.0 °F 48% 29.77 in 10.0 mi South 11.5 mph - N/A   Clear
6:32 PM 60.8 °F - 41.0 °F 48% 29.76 in 10.0 mi South 12.7 mph 19.6 mph N/A   Clear
6:53 PM 60.8 °F - 41.0 °F 48% 29.75 in 10.0 mi South 11.5 mph 18.4 mph N/A   Clear
7:12 PM 59.0 °F - 42.8 °F 55% 29.75 in 10.0 mi South 11.5 mph 17.3 mph N/A   Clear
7:32 PM 57.2 °F - 42.8 °F 59% 29.74 in 10.0 mi South 13.8 mph 19.6 mph N/A   Clear
7:53 PM 59.0 °F - 42.8 °F 55% 29.74 in 10.0 mi South 16.1 mph 20.7 mph N/A   Clear
8:12 PM 57.2 °F - 42.8 °F 59% 29.73 in 10.0 mi South 16.1 mph 21.9 mph N/A   Clear
8:32 PM 57.2 °F - 42.8 °F 59% 29.72 in 10.0 mi South 15.0 mph 19.6 mph N/A   Clear
8:53 PM 59.0 °F - 41.0 °F 51% 29.71 in 10.0 mi South 21.9 mph 27.6 mph N/A   Clear
9:12 PM 59.0 °F - 41.0 °F 51% 29.71 in 10.0 mi South 21.9 mph 28.8 mph N/A   Clear
9:32 PM 57.2 °F - 41.0 °F 55% 29.71 in 10.0 mi South 19.6 mph 23.0 mph N/A   Clear
9:53 PM 57.2 °F - 41.0 °F 55% 29.70 in 10.0 mi South 18.4 mph 27.6 mph N/A   Clear
10:13 PM 57.2 °F - 42.8 °F 59% 29.70 in 10.0 mi South 17.3 mph - N/A   Clear
10:32 PM 57.2 °F - 42.8 °F 59% 29.70 in 10.0 mi South 16.1 mph 23.0 mph N/A   Clear
10:53 PM 57.2 °F - 42.8 °F 59% 29.69 in 10.0 mi South 17.3 mph - N/A   Clear
11:13 PM 57.2 °F - 42.8 °F 59% 29.68 in 10.0 mi South 17.3 mph 25.3 mph N/A   Clear
11:32 PM 57.2 °F - 42.8 °F 59% 29.68 in 10.0 mi South 18.4 mph 26.5 mph N/A   Clear
11:53 PM 57.2 °F - 44.6 °F 63% 29.67 in 10.0 mi SSW 19.6 mph - N/A   Clear